createdAt,value
2023-04-19T00:00:52.063Z,102456.72
2023-04-19T00:01:53.527Z,102455.47
2023-04-19T00:02:56.235Z,102450.00
2023-04-19T00:03:58.350Z,102454.50
2023-04-19T00:04:59.939Z,102455.28
2023-04-19T00:06:02.371Z,102447.28
2023-04-19T00:07:04.516Z,102447.09
2023-04-19T00:08:06.202Z,102437.06
2023-04-19T00:09:08.694Z,102440.69
2023-04-19T00:10:10.319Z,102447.81
2023-04-19T00:11:11.815Z,102444.19
2023-04-19T00:12:13.304Z,102447.16
2023-04-19T00:13:15.792Z,102445.50
2023-04-19T00:14:17.351Z,102434.00
2023-04-19T00:15:19.326Z,102440.88
2023-04-19T00:16:21.359Z,102441.69
2023-04-19T00:17:22.939Z,102437.00
2023-04-19T00:18:24.550Z,102450.84
2023-04-19T00:19:26.057Z,102440.56
2023-04-19T00:20:27.524Z,102448.63
2023-04-19T00:21:28.940Z,102439.63
2023-04-19T00:22:30.475Z,102440.31
2023-04-19T00:23:31.903Z,102426.59
2023-04-19T00:24:33.335Z,102437.81
2023-04-19T00:25:34.849Z,102435.03
2023-04-19T00:26:36.565Z,102430.34
2023-04-19T00:27:37.976Z,102434.94
2023-04-19T00:28:39.402Z,102433.34
2023-04-19T00:29:40.965Z,102439.44
2023-04-19T00:30:42.430Z,102438.66
2023-04-19T00:31:43.898Z,102435.81
2023-04-19T00:32:45.369Z,102430.34
2023-04-19T00:33:46.834Z,102432.25
2023-04-19T00:34:48.284Z,102435.69
2023-04-19T00:35:49.701Z,102438.13
2023-04-19T00:36:51.099Z,102434.19
2023-04-19T00:37:52.607Z,102438.94
2023-04-19T00:38:54.054Z,102434.69
2023-04-19T00:39:55.485Z,102434.63
2023-04-19T00:40:56.944Z,102426.28
2023-04-19T00:41:58.493Z,102435.19
2023-04-19T00:42:59.898Z,102429.53
2023-04-19T00:44:01.307Z,102424.13
2023-04-19T00:45:02.858Z,102426.63
2023-04-19T00:46:04.869Z,102434.72
2023-04-19T00:47:06.522Z,102426.63
2023-04-19T00:48:11.521Z,102430.25
2023-04-19T00:49:13.033Z,102425.16
2023-04-19T00:50:14.889Z,102425.97
2023-04-19T00:51:16.497Z,102424.41
2023-04-19T00:52:18.045Z,102426.38
2023-04-19T00:53:19.507Z,102425.44
2023-04-19T00:54:21.336Z,102426.22
2023-04-19T00:55:23.502Z,102429.13
2023-04-19T00:56:27.027Z,102428.91
2023-04-19T00:57:30.025Z,102423.59
2023-04-19T00:58:32.505Z,102429.19
2023-04-19T00:59:35.166Z,102431.19
2023-04-19T01:00:37.204Z,102424.72
2023-04-19T01:01:38.792Z,102429.59
2023-04-19T01:02:40.637Z,102427.94
2023-04-19T01:03:42.596Z,102422.41
2023-04-19T01:04:44.491Z,102428.66
2023-04-19T01:05:45.953Z,102426.75
2023-04-19T01:06:47.424Z,102421.34
2023-04-19T01:07:48.864Z,102429.47
2023-04-19T01:08:50.352Z,102423.00
2023-04-19T01:09:51.850Z,102428.94
2023-04-19T01:10:53.315Z,102428.19
2023-04-19T01:11:54.783Z,102423.78
2023-04-19T01:12:56.224Z,102423.63
2023-04-19T01:13:58.532Z,102418.13
2023-04-19T01:15:00.000Z,102419.09
2023-04-19T01:16:01.732Z,102427.75
2023-04-19T01:17:03.193Z,102428.50
2023-04-19T01:18:04.791Z,102418.38
2023-04-19T01:19:06.403Z,102433.63
2023-04-19T01:20:08.507Z,102419.44
2023-04-19T01:21:09.884Z,102425.69
2023-04-19T01:22:16.973Z,102424.59
2023-04-19T01:23:18.378Z,102418.31
2023-04-19T01:24:19.900Z,102427.94
2023-04-19T01:25:21.403Z,102429.66
2023-04-19T01:26:22.841Z,102433.53
2023-04-19T01:27:24.717Z,102428.72
2023-04-19T01:28:26.187Z,102423.31
2023-04-19T01:29:28.004Z,102431.22
2023-04-19T01:30:29.432Z,102434.72
2023-04-19T01:31:30.892Z,102425.38
2023-04-19T01:32:32.499Z,102424.41
2023-04-19T01:33:33.954Z,102423.25
2023-04-19T01:34:35.390Z,102422.75
2023-04-19T01:35:36.860Z,102420.22
2023-04-19T01:36:38.271Z,102412.94
2023-04-19T01:37:39.754Z,102423.75
2023-04-19T01:38:41.164Z,102429.72
2023-04-19T01:39:42.584Z,102429.66
2023-04-19T01:40:44.360Z,102421.41
2023-04-19T01:41:45.834Z,102419.72
2023-04-19T01:42:47.230Z,102422.47
2023-04-19T01:43:48.649Z,102426.81
2023-04-19T01:44:50.110Z,102425.44
2023-04-19T01:45:51.662Z,102420.81
2023-04-19T01:46:53.184Z,102420.22
2023-04-19T01:47:55.977Z,102418.44
2023-04-19T01:48:57.467Z,102424.47
2023-04-19T01:49:58.868Z,102406.44
2023-04-19T01:51:00.501Z,102420.81
2023-04-19T01:52:01.957Z,102430.38
2023-04-19T01:53:03.420Z,102422.59
2023-04-19T01:54:05.242Z,102416.91
2023-04-19T01:55:06.936Z,102414.13
2023-04-19T01:56:08.354Z,102422.31
2023-04-19T01:57:09.732Z,102415.91
2023-04-19T01:58:11.188Z,102425.00
2023-04-19T01:59:12.600Z,102416.09
2023-04-19T02:00:15.124Z,102428.69
2023-04-19T02:01:16.783Z,102413.94
2023-04-19T02:02:18.278Z,102417.59
2023-04-19T02:03:20.100Z,102417.50
2023-04-19T02:04:24.596Z,102420.06
2023-04-19T02:05:26.096Z,102411.84
2023-04-19T02:06:27.717Z,102415.34
2023-04-19T02:07:29.569Z,102415.97
2023-04-19T02:08:30.994Z,102414.56
2023-04-19T02:09:38.337Z,102417.34
2023-04-19T02:10:39.744Z,102423.81
2023-04-19T02:11:41.280Z,102414.72
2023-04-19T02:12:43.013Z,102413.25
2023-04-19T02:13:44.483Z,102407.91
2023-04-19T02:14:45.899Z,102419.59
2023-04-19T02:15:47.442Z,102418.94
2023-04-19T02:16:49.008Z,102410.38
2023-04-19T02:17:50.582Z,102413.56
2023-04-19T02:18:52.106Z,102406.63
2023-04-19T02:19:54.010Z,102401.13
2023-04-19T02:20:56.144Z,102404.91
2023-04-19T02:21:58.013Z,102416.50
2023-04-19T02:22:59.401Z,102408.38
2023-04-19T02:24:01.134Z,102405.69
2023-04-19T02:25:02.559Z,102412.03
2023-04-19T02:26:04.278Z,102411.00
2023-04-19T02:27:05.872Z,102408.25
2023-04-19T02:28:07.277Z,102406.13
2023-04-19T02:29:08.729Z,102413.53
2023-04-19T02:30:10.651Z,102409.91
2023-04-19T02:31:12.138Z,102405.59
2023-04-19T02:32:13.601Z,102399.53
2023-04-19T02:33:15.753Z,102400.97
2023-04-19T02:34:17.660Z,102410.78
2023-04-19T02:35:19.537Z,102405.22
2023-04-19T02:36:21.309Z,102407.97
2023-04-19T02:37:22.851Z,102411.59
2023-04-19T02:38:24.394Z,102398.91
2023-04-19T02:39:25.886Z,102407.16
2023-04-19T02:40:27.309Z,102400.97
2023-04-19T02:41:28.734Z,102400.66
2023-04-19T02:42:30.285Z,102405.88
2023-04-19T02:43:31.765Z,102405.13
2023-04-19T02:44:33.179Z,102393.81
2023-04-19T02:45:34.987Z,102397.44
2023-04-19T02:46:36.460Z,102394.84
2023-04-19T02:47:38.010Z,102399.31
2023-04-19T02:48:39.514Z,102398.13
2023-04-19T02:49:41.488Z,102394.28
2023-04-19T02:50:42.910Z,102397.38
2023-04-19T02:51:44.386Z,102403.59
2023-04-19T02:52:45.783Z,102394.19
2023-04-19T02:53:47.210Z,102398.81
2023-04-19T02:54:48.618Z,102392.34
2023-04-19T02:55:50.688Z,102395.03
2023-04-19T02:56:52.002Z,102398.81
2023-04-19T02:57:53.391Z,102389.81
2023-04-19T02:58:55.058Z,102398.13
2023-04-19T02:59:56.545Z,102389.19
2023-04-19T03:00:57.997Z,102390.72
2023-04-19T03:01:59.527Z,102393.38
2023-04-19T03:03:03.851Z,102385.81
2023-04-19T03:04:05.648Z,102388.69
2023-04-19T03:05:07.340Z,102385.84
2023-04-19T03:06:09.074Z,102391.31
2023-04-19T03:07:10.563Z,102378.09
2023-04-19T03:08:12.108Z,102383.28
2023-04-19T03:09:13.661Z,102383.38
2023-04-19T03:10:15.349Z,102375.69
2023-04-19T03:11:17.292Z,102378.16
2023-04-19T03:12:18.832Z,102379.25
2023-04-19T03:13:20.284Z,102381.78
2023-04-19T03:14:21.766Z,102383.38
2023-04-19T03:15:23.267Z,102375.19
2023-04-19T03:16:24.704Z,102377.41
2023-04-19T03:17:26.188Z,102386.47
2023-04-19T03:18:27.625Z,102374.59
2023-04-19T03:19:29.200Z,102378.25
2023-04-19T03:20:30.795Z,102372.94
2023-04-19T03:21:32.221Z,102372.78
2023-04-19T03:22:33.629Z,102376.19
2023-04-19T03:23:35.092Z,102380.59
2023-04-19T03:24:37.971Z,102363.97
2023-04-19T03:25:39.770Z,102369.38
2023-04-19T03:26:41.261Z,102374.47
2023-04-19T03:27:45.105Z,102367.44
2023-04-19T03:28:46.529Z,102365.06
2023-04-19T03:29:48.983Z,102368.88
2023-04-19T03:30:50.547Z,102366.00
2023-04-19T03:31:51.983Z,102364.28
2023-04-19T03:32:53.503Z,102361.44
2023-04-19T03:33:54.934Z,102361.38
2023-04-19T03:34:56.348Z,102361.84
2023-04-19T03:35:57.760Z,102367.13
2023-04-19T03:36:59.156Z,102356.25
2023-04-19T03:38:00.572Z,102368.09
2023-04-19T03:39:03.698Z,102364.56
2023-04-19T03:40:06.009Z,102361.00
2023-04-19T03:41:18.858Z,102351.25
2023-04-19T03:42:22.917Z,102352.91
2023-04-19T03:43:24.497Z,102359.84
2023-04-19T03:44:26.053Z,102345.34
2023-04-19T03:45:27.530Z,102347.09
2023-04-19T03:46:31.801Z,102352.13
2023-04-19T03:47:33.385Z,102355.28
2023-04-19T03:48:35.753Z,102350.59
2023-04-19T03:49:37.247Z,102351.09
2023-04-19T03:50:38.708Z,102347.09
2023-04-19T03:51:40.188Z,102355.16
2023-04-19T03:52:41.709Z,102351.50
2023-04-19T03:53:43.262Z,102352.59
2023-04-19T03:54:45.069Z,102353.31
2023-04-19T03:55:46.485Z,102354.97
2023-04-19T03:56:48.041Z,102356.38
2023-04-19T03:57:49.942Z,102349.78
2023-04-19T03:58:51.805Z,102353.44
2023-04-19T03:59:53.238Z,102338.00
2023-04-19T04:00:54.664Z,102355.06
2023-04-19T04:01:56.152Z,102346.25
2023-04-19T04:02:57.817Z,102344.59
2023-04-19T04:04:00.102Z,102353.59
2023-04-19T04:05:03.328Z,102346.66
2023-04-19T04:06:05.010Z,102351.28
2023-04-19T04:07:06.445Z,102349.41
2023-04-19T04:08:07.863Z,102348.19
2023-04-19T04:09:09.300Z,102353.88
2023-04-19T04:10:10.790Z,102346.44
2023-04-19T04:11:12.192Z,102355.47
2023-04-19T04:12:13.664Z,102356.50
2023-04-19T04:13:15.277Z,102345.97
2023-04-19T04:14:16.850Z,102341.34
2023-04-19T04:15:18.381Z,102353.13
2023-04-19T04:16:19.840Z,102348.91
2023-04-19T04:17:21.341Z,102358.88
2023-04-19T04:18:23.341Z,102352.66
2023-04-19T04:19:24.807Z,102338.25
2023-04-19T04:20:26.304Z,102343.53
2023-04-19T04:21:28.316Z,102356.25
2023-04-19T04:22:29.744Z,102347.09
2023-04-19T04:23:31.168Z,102354.84
2023-04-19T04:24:38.790Z,102351.25
2023-04-19T04:25:40.379Z,102350.69
2023-04-19T04:26:42.302Z,102345.13
2023-04-19T04:27:44.165Z,102343.09
2023-04-19T04:28:46.018Z,102349.91
2023-04-19T04:29:47.535Z,102353.97
2023-04-19T04:30:48.934Z,102354.72
2023-04-19T04:31:50.745Z,102351.38
2023-04-19T04:32:52.405Z,102348.69
2023-04-19T04:33:55.191Z,102339.75
2023-04-19T04:34:56.613Z,102344.44
2023-04-19T04:35:59.088Z,102348.25
2023-04-19T04:37:01.255Z,102343.63
2023-04-19T04:38:11.159Z,102334.69
2023-04-19T04:39:15.990Z,102338.34
2023-04-19T04:40:17.765Z,102344.00
2023-04-19T04:41:22.532Z,102341.97
2023-04-19T04:42:24.307Z,102329.69
2023-04-19T04:43:29.750Z,102331.63
2023-04-19T04:44:31.323Z,102326.31
2023-04-19T04:45:33.824Z,102324.19
2023-04-19T04:46:36.056Z,102334.16
2023-04-19T04:47:37.783Z,102336.09
2023-04-19T04:48:39.201Z,102331.72
2023-04-19T04:49:40.873Z,102328.34
2023-04-19T04:50:42.493Z,102332.72
2023-04-19T04:51:43.925Z,102331.81
2023-04-19T04:52:45.358Z,102334.66
2023-04-19T04:53:47.270Z,102331.31
2023-04-19T04:54:48.683Z,102330.19
2023-04-19T04:55:50.138Z,102323.09
2023-04-19T04:56:51.609Z,102332.13
2023-04-19T04:57:53.058Z,102324.91
2023-04-19T04:58:54.534Z,102319.31
2023-04-19T04:59:56.437Z,102323.28
2023-04-19T05:00:57.980Z,102322.44
2023-04-19T05:01:59.646Z,102323.47
2023-04-19T05:03:02.894Z,102321.63
2023-04-19T05:04:04.880Z,102330.78
2023-04-19T05:05:06.577Z,102316.03
2023-04-19T05:06:08.623Z,102325.38
2023-04-19T05:07:09.914Z,102328.75
2023-04-19T05:08:11.406Z,102321.94
2023-04-19T05:09:12.914Z,102324.44
2023-04-19T05:10:14.352Z,102320.66
2023-04-19T05:11:16.326Z,102325.13
2023-04-19T05:12:17.738Z,102322.78
2023-04-19T05:13:19.160Z,102315.59
2023-04-19T05:14:20.653Z,102318.63
2023-04-19T05:15:22.307Z,102314.34
2023-04-19T05:16:23.842Z,102310.97
2023-04-19T05:17:25.436Z,102312.03
2023-04-19T05:18:26.873Z,102307.72
2023-04-19T05:19:28.308Z,102303.63
2023-04-19T05:20:30.558Z,102311.50
2023-04-19T05:21:34.457Z,102304.97
2023-04-19T05:22:35.868Z,102308.88
2023-04-19T05:23:38.016Z,102308.22
2023-04-19T05:24:42.181Z,102304.69
2023-04-19T05:25:43.882Z,102299.63
2023-04-19T05:26:45.319Z,102309.84
2023-04-19T05:27:46.759Z,102291.66
2023-04-19T05:28:48.225Z,102300.22
2023-04-19T05:29:51.391Z,102305.03
2023-04-19T05:30:52.822Z,102297.00
2023-04-19T05:31:54.386Z,102294.53
2023-04-19T05:32:56.742Z,102294.81
2023-04-19T05:33:58.243Z,102279.88
2023-04-19T05:34:59.711Z,102288.28
2023-04-19T05:36:01.141Z,102276.19
2023-04-19T05:37:03.443Z,102281.09
2023-04-19T05:38:04.878Z,102274.81
2023-04-19T05:39:06.678Z,102280.34
2023-04-19T05:40:11.675Z,102287.59
2023-04-19T05:41:13.084Z,102271.44
2023-04-19T05:42:14.473Z,102273.28
2023-04-19T05:43:16.104Z,102275.94
2023-04-19T05:44:17.796Z,102276.97
2023-04-19T05:45:21.913Z,102274.09
2023-04-19T05:46:23.379Z,102282.97
2023-04-19T05:47:24.827Z,102279.31
2023-04-19T05:48:26.250Z,102274.84
2023-04-19T05:49:27.684Z,102286.63
2023-04-19T05:50:29.073Z,102286.53
2023-04-19T05:51:31.762Z,102283.84
2023-04-19T05:52:33.453Z,102260.84
2023-04-19T05:53:34.970Z,102286.00
2023-04-19T05:54:36.469Z,102278.06
2023-04-19T05:55:38.084Z,102270.63
2023-04-19T05:56:39.895Z,102278.13
2023-04-19T05:57:41.415Z,102283.19
2023-04-19T05:58:42.853Z,102268.63
2023-04-19T05:59:44.322Z,102275.22
2023-04-19T06:00:46.371Z,102275.50
2023-04-19T06:01:47.871Z,102269.66
2023-04-19T06:02:49.471Z,102275.28
2023-04-19T06:03:53.493Z,102274.81
2023-04-19T06:04:56.209Z,102274.97
2023-04-19T06:05:57.770Z,102274.31
2023-04-19T06:06:59.225Z,102275.38
2023-04-19T06:08:02.493Z,102265.91
2023-04-19T06:09:04.717Z,102266.28
2023-04-19T06:10:07.023Z,102275.28
2023-04-19T06:11:23.010Z,102256.41
2023-04-19T06:12:28.261Z,102265.00
2023-04-19T06:13:29.689Z,102264.59
2023-04-19T06:14:31.242Z,102266.47
2023-04-19T06:15:32.702Z,102266.59
2023-04-19T06:16:34.277Z,102263.13
2023-04-19T06:17:35.797Z,102258.13
2023-04-19T06:18:37.291Z,102250.81
2023-04-19T06:19:39.205Z,102264.66
2023-04-19T06:20:40.850Z,102256.66
2023-04-19T06:21:42.250Z,102256.66
2023-04-19T06:22:45.653Z,102249.47
2023-04-19T06:23:47.119Z,102254.88
2023-04-19T06:24:48.806Z,102253.00
2023-04-19T06:25:50.296Z,102248.59
2023-04-19T06:26:52.214Z,102255.78
2023-04-19T06:27:53.633Z,102243.94
2023-04-19T06:28:55.148Z,102245.09
2023-04-19T06:29:56.542Z,102249.97
2023-04-19T06:30:58.515Z,102246.50
2023-04-19T06:32:00.030Z,102245.47
2023-04-19T06:33:01.642Z,102249.06
2023-04-19T06:34:03.587Z,102243.88
2023-04-19T06:35:06.403Z,102246.03
2023-04-19T06:36:08.174Z,102242.72
2023-04-19T06:37:09.675Z,102241.22
2023-04-19T06:38:11.140Z,102253.81
2023-04-19T06:39:12.577Z,102252.88
2023-04-19T06:40:13.962Z,102239.97
2023-04-19T06:41:15.540Z,102237.56
2023-04-19T06:42:19.738Z,102233.78
2023-04-19T06:43:21.428Z,102243.63
2023-04-19T06:44:22.870Z,102234.06
2023-04-19T06:45:24.524Z,102245.41
2023-04-19T06:46:27.570Z,102235.94
2023-04-19T06:47:30.029Z,102242.50
2023-04-19T06:48:31.579Z,102239.00
2023-04-19T06:49:33.141Z,102236.28
2023-04-19T06:50:34.680Z,102239.19
2023-04-19T06:51:36.156Z,102236.28
2023-04-19T06:52:38.037Z,102222.06
2023-04-19T06:53:39.538Z,102231.75
2023-04-19T06:54:41.096Z,102234.59
2023-04-19T06:55:42.743Z,102229.38
2023-04-19T06:56:49.283Z,102230.84
2023-04-19T06:57:50.739Z,102231.75
2023-04-19T06:58:52.155Z,102229.03
2023-04-19T06:59:56.734Z,102227.50
2023-04-19T07:00:58.564Z,102221.06
2023-04-19T07:02:00.093Z,102224.94
2023-04-19T07:03:01.773Z,102210.44
2023-04-19T07:04:03.866Z,102216.72
2023-04-19T07:05:05.743Z,102222.44
2023-04-19T07:06:07.407Z,102216.94
2023-04-19T07:07:08.898Z,102216.03
2023-04-19T07:08:10.354Z,102219.19
2023-04-19T07:09:11.763Z,102206.53
2023-04-19T07:10:13.206Z,102210.09
2023-04-19T07:11:14.588Z,102218.19
2023-04-19T07:12:16.048Z,102216.22
2023-04-19T07:13:17.473Z,102211.75
2023-04-19T07:14:21.935Z,102206.47
2023-04-19T07:15:23.400Z,102206.47
2023-04-19T07:16:27.757Z,102209.38
2023-04-19T07:17:29.270Z,102191.34
2023-04-19T07:18:30.883Z,102198.59
2023-04-19T07:19:33.006Z,102195.88
2023-04-19T07:20:34.515Z,102196.78
2023-04-19T07:21:36.010Z,102197.66
2023-04-19T07:22:37.441Z,102186.94
2023-04-19T07:23:39.034Z,102190.69
2023-04-19T07:24:42.029Z,102193.47
2023-04-19T07:25:43.545Z,102192.53
2023-04-19T07:26:45.079Z,102195.09
2023-04-19T07:27:47.235Z,102183.34
2023-04-19T07:28:49.348Z,102191.53
2023-04-19T07:29:51.024Z,102186.22
2023-04-19T07:30:52.521Z,102185.25
2023-04-19T07:31:55.493Z,102179.72
2023-04-19T07:32:57.211Z,102188.84
2023-04-19T07:33:58.781Z,102173.47
2023-04-19T07:35:00.634Z,102171.69
2023-04-19T07:36:02.175Z,102180.94
2023-04-19T07:37:03.568Z,102170.03
2023-04-19T07:38:05.029Z,102166.34
2023-04-19T07:39:06.437Z,102171.88
2023-04-19T07:40:08.421Z,102175.50
2023-04-19T07:41:09.854Z,102174.59
2023-04-19T07:42:11.360Z,102181.09
2023-04-19T07:43:12.780Z,102172.84
2023-04-19T07:44:14.656Z,102170.22
2023-04-19T07:45:16.436Z,102164.81
2023-04-19T07:46:18.596Z,102162.16
2023-04-19T07:47:20.243Z,102163.09
2023-04-19T07:48:21.780Z,102160.47
2023-04-19T07:49:23.290Z,102161.19
2023-04-19T07:50:26.131Z,102154.00
2023-04-19T07:51:27.611Z,102153.97
2023-04-19T07:52:29.148Z,102152.25
2023-04-19T07:53:30.558Z,102147.72
2023-04-19T07:54:32.228Z,102154.97
2023-04-19T07:55:33.773Z,102148.63
2023-04-19T07:56:35.235Z,102158.66
2023-04-19T07:57:36.611Z,102151.41
2023-04-19T07:58:39.387Z,102146.91
2023-04-19T07:59:41.286Z,102146.97
2023-04-19T08:00:42.785Z,102148.75
2023-04-19T08:01:44.393Z,102151.53
2023-04-19T08:02:46.498Z,102149.72
2023-04-19T08:03:48.397Z,102152.41
2023-04-19T08:04:51.926Z,102136.03
2023-04-19T08:05:54.048Z,102137.88
2023-04-19T08:06:55.589Z,102145.16
2023-04-19T08:07:57.096Z,102146.97
2023-04-19T08:08:58.681Z,102144.22
2023-04-19T08:10:00.203Z,102142.41
2023-04-19T08:11:02.465Z,102137.91
2023-04-19T08:12:04.160Z,102134.28
2023-04-19T08:13:06.741Z,102136.13
2023-04-19T08:14:18.637Z,102129.81
2023-04-19T08:16:14.973Z,102125.28
2023-04-19T08:17:55.776Z,102130.66
2023-04-19T08:18:57.190Z,102132.50
2023-04-19T08:19:58.635Z,102119.78
2023-04-19T08:21:00.016Z,102128.88
2023-04-19T08:22:01.485Z,102117.97
2023-04-19T08:23:14.097Z,102123.47
2023-04-19T08:24:19.877Z,102124.34
2023-04-19T08:25:22.545Z,102127.13
2023-04-19T08:26:23.940Z,102134.41
2023-04-19T08:27:27.078Z,102127.09
2023-04-19T08:28:28.514Z,102122.56
2023-04-19T08:29:29.926Z,102119.81
2023-04-19T08:30:31.688Z,102125.28
2023-04-19T08:31:33.140Z,102128.94
2023-04-19T08:32:34.714Z,102122.56
2023-04-19T08:33:36.414Z,102125.28
2023-04-19T08:34:39.753Z,102126.19
2023-04-19T08:35:41.645Z,102129.84
2023-04-19T08:36:51.539Z,102126.19
2023-04-19T08:37:57.519Z,102116.19
2023-04-19T08:39:06.660Z,102113.41
2023-04-19T08:40:11.253Z,102123.47
2023-04-19T08:41:13.859Z,102110.69
2023-04-19T08:42:28.788Z,102111.56
2023-04-19T08:43:38.422Z,102111.56
2023-04-19T08:44:58.998Z,102119.75
2023-04-19T08:46:05.056Z,102118.88
2023-04-19T08:47:10.230Z,102122.56
2023-04-19T08:48:15.607Z,102118.91
2023-04-19T08:49:20.079Z,102108.91
2023-04-19T08:50:32.591Z,102111.63
2023-04-19T08:51:35.766Z,102124.38
2023-04-19T08:52:51.999Z,102110.75
2023-04-19T08:53:59.110Z,102114.38
2023-04-19T08:55:05.542Z,102104.34
2023-04-19T08:56:18.074Z,102097.03
2023-04-19T08:57:25.735Z,102089.72
2023-04-19T08:59:35.794Z,102095.97
2023-04-19T09:00:41.275Z,102095.03
2023-04-19T09:01:44.711Z,102106.94
2023-04-19T09:02:52.039Z,102102.31
2023-04-19T09:04:03.287Z,102098.56
2023-04-19T09:05:16.402Z,102088.44
2023-04-19T09:06:18.104Z,102081.19
2023-04-19T09:07:27.167Z,102094.91
2023-04-19T09:08:30.502Z,102080.22
2023-04-19T09:10:36.876Z,102072.78
2023-04-19T09:11:38.804Z,102085.63
2023-04-19T09:12:40.683Z,102082.88
2023-04-19T09:13:44.465Z,102064.50
2023-04-19T09:15:53.487Z,102072.19
2023-04-19T09:17:12.651Z,102048.25
2023-04-19T09:18:14.340Z,102055.66
2023-04-19T09:19:24.231Z,102049.84
2023-04-19T09:20:36.435Z,102061.94
2023-04-19T09:21:38.944Z,102066.66
2023-04-19T09:22:40.476Z,102066.66
2023-04-19T09:23:47.599Z,102060.22
2023-04-19T09:27:06.180Z,102061.38
2023-04-19T09:28:14.664Z,102070.56
2023-04-19T09:29:17.156Z,102070.56
2023-04-19T09:30:32.568Z,102060.59
2023-04-19T09:32:47.786Z,102058.72
2023-04-19T09:33:49.610Z,102057.69
2023-04-19T09:34:58.342Z,102052.25
2023-04-19T09:36:00.964Z,102053.84
2023-04-19T09:37:21.523Z,102050.00
2023-04-19T09:38:50.134Z,102041.53
2023-04-19T09:39:52.326Z,102021.63
2023-04-19T09:41:06.816Z,102028.34
2023-04-19T09:42:08.311Z,102028.34
2023-04-19T09:43:29.146Z,102034.63
2023-04-19T09:45:05.998Z,102037.34
2023-04-19T09:45:54.563Z,102033.66
2023-04-19T09:46:57.597Z,102020.63
2023-04-19T09:48:03.994Z,102031.13
2023-04-19T09:49:27.814Z,102035.75
2023-04-19T09:51:00.855Z,102029.38
2023-04-19T09:52:05.517Z,102024.13
2023-04-19T09:53:07.020Z,102037.25
2023-04-19T09:54:09.898Z,102022.41
2023-04-19T09:55:22.557Z,102023.97
2023-04-19T09:56:28.197Z,102026.97
2023-04-19T09:57:33.589Z,102021.03
2023-04-19T09:58:46.927Z,102028.53
2023-04-19T09:59:50.903Z,102021.03
2023-04-19T10:01:02.874Z,102030.72
2023-04-19T10:02:14.756Z,102026.16
2023-04-19T10:03:17.955Z,102027.97
2023-04-19T10:04:33.433Z,102017.81
2023-04-19T10:05:45.984Z,102018.72
2023-04-19T10:07:19.264Z,102008.75
2023-04-19T10:08:14.926Z,102010.13
2023-04-19T10:09:18.652Z,102015.56
2023-04-19T10:10:27.555Z,102022.06
2023-04-19T10:11:48.274Z,102031.16
2023-04-19T10:14:01.662Z,102015.06
2023-04-19T10:15:04.226Z,102015.94
2023-04-19T10:16:18.161Z,102011.34
2023-04-19T10:17:22.333Z,102012.50
2023-04-19T10:18:25.210Z,102011.06
2023-04-19T10:19:28.128Z,102011.47
2023-04-19T10:20:49.880Z,102002.44
2023-04-19T10:21:51.699Z,102000.19
2023-04-19T10:22:53.642Z,101986.69
2023-04-19T10:23:56.212Z,101994.34
2023-04-19T10:25:15.637Z,101991.41
2023-04-19T10:26:17.130Z,101989.69
2023-04-19T10:27:25.524Z,101993.66
2023-04-19T10:28:30.991Z,101993.88
2023-04-19T10:30:01.342Z,101987.38
2023-04-19T10:31:04.625Z,101983.06
2023-04-19T10:32:06.558Z,101988.59
2023-04-19T10:33:08.047Z,101978.78
2023-04-19T10:34:12.608Z,101981.78
2023-04-19T10:35:22.643Z,101979.19
2023-04-19T10:36:27.448Z,101981.34
2023-04-19T10:37:28.923Z,101983.22
2023-04-19T10:38:44.552Z,101979.97
2023-04-19T10:39:46.100Z,101983.41
2023-04-19T10:41:00.131Z,101980.16
2023-04-19T10:42:02.110Z,101983.16
2023-04-19T10:43:12.387Z,101988.25
2023-04-19T10:44:13.781Z,101987.44
2023-04-19T10:45:35.234Z,101984.13
2023-04-19T10:46:40.116Z,101969.53
2023-04-19T10:47:45.060Z,101980.66
2023-04-19T10:48:59.687Z,101979.81
2023-04-19T10:50:04.571Z,101976.75
2023-04-19T10:51:16.075Z,101965.44
2023-04-19T10:52:29.628Z,101975.25
2023-04-19T10:53:59.652Z,101965.13
2023-04-19T10:55:04.699Z,101974.06
2023-04-19T10:56:06.549Z,101978.72
2023-04-19T10:57:10.134Z,101978.91
2023-04-19T10:58:11.932Z,101992.75
2023-04-19T10:59:21.290Z,101978.47
2023-04-19T11:00:25.682Z,101976.69
2023-04-19T11:01:51.439Z,101965.78
2023-04-19T11:02:52.948Z,101980.50
2023-04-19T11:03:54.835Z,101985.03
2023-04-19T11:04:56.293Z,101976.84
2023-04-19T11:06:21.268Z,101973.94
2023-04-19T11:07:22.742Z,101970.75
2023-04-19T11:08:24.483Z,101969.34
2023-04-19T11:09:41.180Z,101970.56
2023-04-19T11:10:43.910Z,101962.84
2023-04-19T11:11:45.487Z,101966.34
2023-04-19T11:12:47.024Z,101960.44
2023-04-19T11:13:48.770Z,101960.34
2023-04-19T11:14:57.246Z,101952.91
2023-04-19T11:15:59.300Z,101953.69
2023-04-19T11:17:02.764Z,101954.72
2023-04-19T11:18:12.610Z,101954.00
2023-04-19T11:19:18.644Z,101955.53
2023-04-19T11:20:23.674Z,101955.09
2023-04-19T11:21:25.330Z,101946.50
2023-04-19T11:22:37.061Z,101959.50
2023-04-19T11:23:38.501Z,101954.13
2023-04-19T11:24:46.956Z,101958.00
2023-04-19T11:25:51.661Z,101951.75
2023-04-19T11:26:55.775Z,101958.31
2023-04-19T11:27:57.663Z,101955.81
2023-04-19T11:28:59.136Z,101955.19
2023-04-19T11:30:05.643Z,101952.03
2023-04-19T11:31:07.420Z,101955.31
2023-04-19T11:32:08.956Z,101946.28
2023-04-19T11:33:12.493Z,101942.75
2023-04-19T11:34:14.103Z,101946.38
2023-04-19T11:35:19.533Z,101942.16
2023-04-19T11:36:21.030Z,101928.16
2023-04-19T11:37:22.801Z,101943.84
2023-04-19T11:38:27.858Z,101944.72
2023-04-19T11:39:29.302Z,101935.63
2023-04-19T11:40:32.008Z,101937.41
2023-04-19T11:41:39.905Z,101931.03
2023-04-19T11:42:41.239Z,101935.59
2023-04-19T11:43:45.184Z,101939.47
2023-04-19T11:44:51.771Z,101939.66
2023-04-19T11:45:55.088Z,101932.59
2023-04-19T11:47:05.089Z,101945.31
2023-04-19T11:48:08.212Z,101935.22
2023-04-19T11:49:09.829Z,101933.41
2023-04-19T11:50:37.987Z,101935.03
2023-04-19T11:51:43.487Z,101929.38
2023-04-19T11:52:49.157Z,101937.00
2023-04-19T11:53:50.619Z,101926.94
2023-04-19T11:54:55.236Z,101938.03
2023-04-19T11:56:03.508Z,101936.25
2023-04-19T11:57:07.047Z,101923.69
2023-04-19T11:58:09.781Z,101923.78
2023-04-19T11:59:11.279Z,101930.91
2023-04-19T12:00:13.305Z,101929.06
2023-04-19T12:01:16.915Z,101928.38
2023-04-19T12:02:19.212Z,101922.00
2023-04-19T12:03:27.247Z,101922.94
2023-04-19T12:04:29.053Z,101932.84
2023-04-19T12:05:31.318Z,101921.00
2023-04-19T12:06:32.820Z,101926.50
2023-04-19T12:07:34.275Z,101912.78
2023-04-19T12:08:38.199Z,101909.69
2023-04-19T12:09:39.809Z,101904.38
2023-04-19T12:10:58.606Z,101906.66
2023-04-19T12:12:00.466Z,101909.78
2023-04-19T12:13:16.066Z,101907.03